CheckWX is a tool to help pilots better visualize weather data.  It is not intended as a substitute for an official pre-flight weather briefing.

09:05:36 UTC

3AU METAR
Augusta Municipal Airport
Augusta, Kansas, USA
Current

31 mins ago

K3AU 140835Z AUTO 33006KT 10SM CLR 00/M06 A3021 RMK AO2
Observed
Nov-14 @ 08:35 UTC
Wind
  • 330° at 6 KTS
Visibility
10 SM
Flight Rules
VFR
Cloud Levels
  • Clear skies
Temperature
C / 32°F
Dewpoint
-6°C / 21°F
Humidity
64%
Altimeter
30.21" Hg
Pressure
1023.02 hPa
Previous

51 mins ago

K3AU 140815Z AUTO 32004KT 10SM CLR 00/M06 A3021 RMK AO2
Observed
Nov-14 @ 08:15 UTC
Wind
  • 320° at 4 KTS
Visibility
10 SM
Flight Rules
VFR
Cloud Levels
  • Clear skies
Temperature
C / 32°F
Dewpoint
-6°C / 21°F
Humidity
64%
Altimeter
30.21" Hg
Pressure
1023.02 hPa
Previous

2 hours ago

K3AU 140735Z AUTO 33005KT 10SM CLR 00/M06 A3019 RMK AO2
Observed
Nov-14 @ 07:35 UTC
Wind
  • 330° at 5 KTS
Visibility
10 SM
Flight Rules
VFR
Cloud Levels
  • Clear skies
Temperature
C / 32°F
Dewpoint
-6°C / 21°F
Humidity
64%
Altimeter
30.19" Hg
Pressure
1022.32 hPa